Airfield :
LOGIN :

Register | Disclaimer

   EN    FR    IT 

 










Legend :    VFR   Marginal VFR   IFR   Intensive IFR   Very Intensive IFR
Visi :
Ceiling :
>= 8 km
>= 3000ft
5 to 8 km
1000 to 3000 ft
1500m to 5 km
500 to 1000 ft
800 to 1500m
200 to 500 ft
< 800m
< 200 ft
Symbols :   Thunderstorms  Fog  Heavy snow  Heavy precipitations  Wind > 20 kt
SIGMETs :     Misc.  Thunderstorms  Icing  Turbulence  Mountain Waves  Volcanic Ashes







- Airport Elevation : 2220 ft


LOXZ - Zeltweg AB

CURRENT METAR :
  • 251720Z 17003KT 30KM FEW040SC SCT250CI 16/08 Q1021 NOSIG

EXPIRED METARs :
  • 251650Z 23004KT 30KM FEW030SC SCT080SC 16/10 Q1021 NOSIG
  • 251620Z 26005KT 30KM FEW030SC SCT070CU 15/10 Q1021 NOSIG
  • 251550Z 31010KT 30KM FEW030SC SCT070CU 16/09 Q1021 NOSIG
  • 251520Z 04005KT 30KM FEW030CU BKN070SC 16/07 Q1021 NOSIG
  • 251450Z 06012KT 30KM FEW030CU BKN050SC 16/08 Q1021 NOSIG

TAF TAF LOXZ
Valid from the 25 at 15:00 until the 26 at 00:00 UTC


251415Z 2515/2524 06010KT 9999 FEW035 BKN050
BECMG 2517/2519 VRB03KT
No reported NOTAMs for that airfield.



MET'MAP, your aeronautical weather chart ! - Copyright ORBIFLY December 2007 - Disclaimer

ORBIFLY MET'MAP TEAM :

Programming & Development : Alexandra Zaïnal
Concept & Development : Baudouin d'Aumeries
Co-Development & Prog : Marc-Olivier Méhu
Technical & hardware support : Manuel Goepfert

Contact : metmap@orbifly.com




SOURCES & CREDITS :

   NOAA